createdAt,value
2022-12-02T00:02:29.531Z,25.80
2022-12-02T00:05:11.126Z,25.80
2022-12-02T00:07:37.783Z,25.80
2022-12-02T00:10:25.269Z,25.80
2022-12-02T00:12:51.990Z,25.80
2022-12-02T00:15:43.973Z,25.80
2022-12-02T00:18:14.793Z,25.80
2022-12-02T00:20:42.509Z,25.80
2022-12-02T00:23:08.910Z,25.80
2022-12-02T00:25:35.270Z,25.80
2022-12-02T00:28:01.835Z,25.80
2022-12-02T00:30:28.356Z,25.80
2022-12-02T00:32:54.737Z,25.80
2022-12-02T00:35:22.768Z,25.90
2022-12-02T00:37:48.916Z,25.80
2022-12-02T00:40:15.065Z,25.80
2022-12-02T00:42:41.257Z,25.80
2022-12-02T00:45:28.823Z,25.80
2022-12-02T00:47:54.908Z,25.90
2022-12-02T00:50:21.019Z,25.80
2022-12-02T00:52:47.127Z,25.80
2022-12-02T00:55:13.309Z,25.90
2022-12-02T00:57:39.359Z,25.80
2022-12-02T01:00:06.918Z,25.80
2022-12-02T01:02:33.178Z,25.90
2022-12-02T01:04:59.265Z,25.90
2022-12-02T01:07:25.444Z,25.90
2022-12-02T01:09:51.534Z,25.80
2022-12-02T01:12:17.593Z,25.90
2022-12-02T01:14:43.672Z,25.90
2022-12-02T01:17:09.770Z,25.90
2022-12-02T01:19:35.856Z,25.90
2022-12-02T01:22:01.913Z,25.90
2022-12-02T01:24:27.966Z,25.90
2022-12-02T01:26:54.008Z,25.90
2022-12-02T01:29:20.156Z,25.90
2022-12-02T01:31:46.239Z,25.90
2022-12-02T01:34:12.378Z,25.90
2022-12-02T01:36:38.416Z,25.90
2022-12-02T01:39:04.462Z,25.90
2022-12-02T01:41:30.751Z,25.90
2022-12-02T01:43:56.831Z,25.90
2022-12-02T01:46:22.970Z,25.90
2022-12-02T01:48:49.509Z,25.90
2022-12-02T01:51:16.341Z,25.90
2022-12-02T01:53:42.451Z,25.90
2022-12-02T01:56:11.573Z,25.90
2022-12-02T01:58:37.989Z,25.90
2022-12-02T02:01:22.222Z,25.90
2022-12-02T02:03:48.333Z,25.90
2022-12-02T02:06:14.483Z,25.90
2022-12-02T02:08:40.597Z,25.90
2022-12-02T02:11:06.687Z,25.90
2022-12-02T02:13:32.782Z,25.90
2022-12-02T02:15:59.041Z,25.90
2022-12-02T02:18:25.116Z,25.90
2022-12-02T02:20:53.299Z,25.90
2022-12-02T02:23:23.879Z,25.90
2022-12-02T02:25:53.476Z,25.90
2022-12-02T02:28:20.561Z,25.90
2022-12-02T02:30:46.806Z,25.90
2022-12-02T02:33:14.611Z,25.90
2022-12-02T02:35:43.353Z,25.90
2022-12-02T02:38:12.477Z,25.90
2022-12-02T02:40:39.158Z,25.90
2022-12-02T02:43:06.081Z,25.90
2022-12-02T02:45:35.687Z,25.90
2022-12-02T02:48:04.108Z,25.90
2022-12-02T02:50:30.835Z,25.90
2022-12-02T02:52:57.621Z,25.90
2022-12-02T02:55:26.671Z,25.90
2022-12-02T02:57:53.257Z,25.90
2022-12-02T03:00:21.635Z,25.90
2022-12-02T03:02:53.371Z,25.90
2022-12-02T03:05:21.117Z,25.90
2022-12-02T03:07:48.077Z,25.90
2022-12-02T03:10:14.798Z,25.90
2022-12-02T03:12:41.288Z,25.90
2022-12-02T03:15:08.377Z,25.90
2022-12-02T03:17:35.280Z,25.90
2022-12-02T03:20:01.404Z,25.90
2022-12-02T03:22:28.248Z,25.90
2022-12-02T03:24:54.457Z,25.90
2022-12-02T03:27:20.609Z,25.90
2022-12-02T03:29:46.820Z,25.90
2022-12-02T03:32:13.256Z,25.90
2022-12-02T03:34:41.456Z,25.90
2022-12-02T03:37:08.761Z,25.90
2022-12-02T03:39:35.116Z,25.90
2022-12-02T03:42:01.341Z,25.90
2022-12-02T03:44:27.479Z,25.90
2022-12-02T03:46:53.662Z,25.90
2022-12-02T03:49:19.872Z,25.90
2022-12-02T03:51:46.919Z,25.90
2022-12-02T03:54:13.380Z,25.90
2022-12-02T03:56:41.525Z,25.90
2022-12-02T03:59:09.043Z,25.90
2022-12-02T04:01:35.180Z,25.90
2022-12-02T04:04:01.356Z,26.00
2022-12-02T04:06:27.486Z,25.90
2022-12-02T04:08:53.559Z,25.90
2022-12-02T04:11:19.696Z,25.90
2022-12-02T04:13:45.741Z,25.90
2022-12-02T04:16:11.916Z,25.90
2022-12-02T04:18:37.998Z,25.90
2022-12-02T04:21:04.177Z,25.90
2022-12-02T04:23:30.483Z,26.00
2022-12-02T04:25:56.618Z,25.90
2022-12-02T04:28:22.788Z,25.90
2022-12-02T04:30:48.888Z,25.90
2022-12-02T04:33:14.965Z,25.90
2022-12-02T04:35:41.068Z,25.90
2022-12-02T04:38:11.799Z,25.90
2022-12-02T04:40:38.590Z,25.90
2022-12-02T04:43:04.643Z,25.90
2022-12-02T04:45:30.766Z,26.00
2022-12-02T04:47:56.837Z,26.00
2022-12-02T04:50:22.916Z,25.90
2022-12-02T04:52:49.080Z,25.90
2022-12-02T04:55:15.284Z,26.00
2022-12-02T04:57:41.325Z,25.90
2022-12-02T05:00:08.688Z,25.90
2022-12-02T05:02:34.863Z,25.90
2022-12-02T05:05:01.040Z,26.00
2022-12-02T05:07:27.143Z,25.90
2022-12-02T05:09:53.292Z,25.90
2022-12-02T05:12:19.338Z,25.90
2022-12-02T05:14:45.451Z,26.00
2022-12-02T05:17:11.493Z,25.90
2022-12-02T05:19:37.574Z,26.00
2022-12-02T05:22:03.642Z,26.00
2022-12-02T05:24:29.677Z,25.90
2022-12-02T05:26:55.726Z,25.90
2022-12-02T05:29:21.850Z,26.00
2022-12-02T05:31:47.934Z,25.90
2022-12-02T05:34:14.076Z,25.90
2022-12-02T05:36:40.199Z,26.00
2022-12-02T05:39:06.330Z,26.00
2022-12-02T05:41:32.624Z,26.00
2022-12-02T05:44:17.819Z,26.00
2022-12-02T05:46:43.959Z,26.00
2022-12-02T05:49:22.711Z,26.00
2022-12-02T05:52:00.031Z,26.00
2022-12-02T05:54:27.529Z,26.00
2022-12-02T05:56:55.531Z,26.00
2022-12-02T05:59:22.497Z,26.00
2022-12-02T06:01:53.635Z,26.00
2022-12-02T06:04:26.227Z,26.00
2022-12-02T06:06:53.877Z,25.90
2022-12-02T06:09:24.484Z,25.80
2022-12-02T06:11:51.469Z,25.80
2022-12-02T06:14:23.918Z,25.80
2022-12-02T06:17:01.687Z,25.80
2022-12-02T06:19:37.525Z,25.70
2022-12-02T06:22:09.288Z,25.70
2022-12-02T06:24:36.108Z,25.70
2022-12-02T06:27:02.904Z,25.70
2022-12-02T06:29:31.573Z,25.60
2022-12-02T06:31:59.304Z,25.60
2022-12-02T06:34:38.484Z,25.60
2022-12-02T06:37:19.116Z,25.60
2022-12-02T06:40:11.860Z,25.60
2022-12-02T06:42:38.248Z,25.60
2022-12-02T06:45:13.520Z,25.60
2022-12-02T06:47:46.545Z,25.60
2022-12-02T06:50:15.369Z,25.50
2022-12-02T06:52:44.450Z,25.60
2022-12-02T06:55:32.877Z,25.50
2022-12-02T06:58:08.805Z,25.50
2022-12-02T07:00:35.015Z,25.50
2022-12-02T07:03:01.276Z,25.50
2022-12-02T07:05:27.421Z,25.50
2022-12-02T07:07:53.541Z,25.50
2022-12-02T07:10:24.644Z,25.50
2022-12-02T07:12:52.098Z,25.50
2022-12-02T07:15:33.175Z,25.50
2022-12-02T07:18:10.753Z,25.50
2022-12-02T07:20:38.644Z,25.50
2022-12-02T07:23:13.927Z,25.50
2022-12-02T07:25:51.173Z,25.40
2022-12-02T07:28:35.593Z,25.40
2022-12-02T07:31:21.890Z,25.40
2022-12-02T07:33:48.581Z,25.40
2022-12-02T07:36:14.625Z,25.40
2022-12-02T07:39:05.285Z,25.40
2022-12-02T07:41:29.540Z,25.40
2022-12-02T07:43:58.064Z,25.40
2022-12-02T07:46:24.135Z,25.40
2022-12-02T07:48:54.321Z,25.40
2022-12-02T07:51:23.645Z,25.40
2022-12-02T07:53:49.709Z,25.40
2022-12-02T07:56:15.942Z,25.40
2022-12-02T07:59:10.904Z,25.40
2022-12-02T08:01:28.443Z,25.40
2022-12-02T08:03:54.613Z,25.30
2022-12-02T08:06:20.711Z,25.30
2022-12-02T08:08:46.834Z,25.30
2022-12-02T08:11:13.088Z,25.30
2022-12-02T08:13:39.152Z,25.30
2022-12-02T08:16:05.593Z,25.30
2022-12-02T08:18:31.640Z,25.30
2022-12-02T08:20:57.686Z,25.30
2022-12-02T08:23:23.771Z,25.30
2022-12-02T08:25:49.824Z,25.30
2022-12-02T08:28:15.869Z,25.30
2022-12-02T08:30:42.030Z,25.30
2022-12-02T08:33:08.157Z,25.30
2022-12-02T08:35:34.211Z,25.30
2022-12-02T08:38:00.284Z,25.30
2022-12-02T08:40:26.565Z,25.30
2022-12-02T08:42:52.611Z,25.30
2022-12-02T08:45:18.669Z,25.30
2022-12-02T08:47:44.744Z,25.20
2022-12-02T08:50:10.948Z,25.30
2022-12-02T08:52:37.093Z,25.20
2022-12-02T08:55:03.394Z,25.20
2022-12-02T08:57:29.461Z,25.20
2022-12-02T08:59:55.522Z,25.20
2022-12-02T09:02:21.628Z,25.20
2022-12-02T09:04:47.746Z,25.20
2022-12-02T09:07:13.858Z,25.20
2022-12-02T09:09:39.900Z,25.20
2022-12-02T09:12:06.203Z,25.20
2022-12-02T09:14:32.237Z,25.20
2022-12-02T09:16:58.296Z,25.20
2022-12-02T09:19:24.371Z,25.20
2022-12-02T09:21:50.419Z,25.20
2022-12-02T09:24:16.468Z,25.20
2022-12-02T09:26:42.530Z,25.20
2022-12-02T09:29:08.581Z,25.20
2022-12-02T09:31:34.779Z,25.20
2022-12-02T09:34:00.930Z,25.20
2022-12-02T09:36:27.003Z,25.20
2022-12-02T09:38:53.249Z,25.20
2022-12-02T09:41:19.361Z,25.10
2022-12-02T09:43:45.462Z,25.10
2022-12-02T09:46:11.693Z,25.10
2022-12-02T09:48:38.143Z,25.10
2022-12-02T09:51:04.348Z,25.10
2022-12-02T09:53:37.618Z,25.10
2022-12-02T09:56:16.917Z,25.10
2022-12-02T09:58:44.313Z,25.10
2022-12-02T10:01:12.794Z,25.10
2022-12-02T10:03:39.841Z,25.10
2022-12-02T10:06:11.520Z,25.10
2022-12-02T10:08:37.665Z,25.10
2022-12-02T10:11:05.442Z,25.10
2022-12-02T10:13:39.053Z,25.10
2022-12-02T10:16:12.367Z,25.10
2022-12-02T10:18:39.428Z,25.10
2022-12-02T10:21:05.785Z,25.10
2022-12-02T10:23:37.863Z,25.10
2022-12-02T10:26:13.388Z,25.10
2022-12-02T10:28:42.382Z,25.10
2022-12-02T10:31:12.123Z,25.10
2022-12-02T10:33:51.777Z,25.10
2022-12-02T10:36:41.582Z,25.10
2022-12-02T10:39:37.600Z,25.10
2022-12-02T10:42:04.378Z,25.10
2022-12-02T10:44:38.499Z,25.10
2022-12-02T10:47:26.631Z,25.10
2022-12-02T10:49:58.243Z,25.10
2022-12-02T10:52:46.886Z,25.10
2022-12-02T10:55:13.853Z,25.10
2022-12-02T10:57:43.580Z,25.10
2022-12-02T11:00:19.672Z,25.00
2022-12-02T11:02:52.158Z,25.10
2022-12-02T11:05:32.807Z,25.00
2022-12-02T11:08:05.500Z,25.00
2022-12-02T11:10:37.684Z,25.00
2022-12-02T11:13:27.366Z,25.00
2022-12-02T11:15:53.638Z,25.00
2022-12-02T11:18:22.742Z,25.00
2022-12-02T11:20:53.741Z,25.00
2022-12-02T11:23:25.033Z,25.00
2022-12-02T11:25:56.907Z,25.00
2022-12-02T11:28:29.077Z,25.00
2022-12-02T11:31:10.516Z,25.00
2022-12-02T11:33:53.038Z,25.00
2022-12-02T11:36:22.976Z,25.00
2022-12-02T11:38:51.833Z,25.00
2022-12-02T11:41:26.574Z,25.00
2022-12-02T11:44:09.500Z,25.00
2022-12-02T11:46:41.781Z,25.00
2022-12-02T11:49:28.084Z,25.00
2022-12-02T11:52:08.104Z,25.00
2022-12-02T11:54:39.496Z,25.00
2022-12-02T11:57:06.355Z,25.00
2022-12-02T11:59:36.195Z,25.00
2022-12-02T12:02:09.003Z,25.00
2022-12-02T12:04:35.266Z,25.00
2022-12-02T12:07:01.502Z,25.00
2022-12-02T12:09:28.879Z,25.00
2022-12-02T12:12:15.450Z,25.00
2022-12-02T12:14:59.356Z,25.00
2022-12-02T12:17:43.679Z,25.00
2022-12-02T12:20:12.849Z,25.00
2022-12-02T12:22:39.517Z,25.00
2022-12-02T12:25:32.058Z,25.00
2022-12-02T12:27:58.194Z,25.00
2022-12-02T12:30:24.483Z,25.00
2022-12-02T12:32:50.637Z,24.90
2022-12-02T12:35:16.840Z,24.90
2022-12-02T12:37:43.150Z,24.90
2022-12-02T12:40:11.835Z,24.90
2022-12-02T12:42:37.877Z,24.90
2022-12-02T12:45:04.351Z,24.90
2022-12-02T12:47:31.032Z,24.90
2022-12-02T12:49:57.151Z,24.90
2022-12-02T12:52:23.322Z,24.90
2022-12-02T12:54:50.486Z,24.90
2022-12-02T12:57:17.020Z,24.90
2022-12-02T12:59:43.077Z,24.90
2022-12-02T13:02:09.254Z,24.90
2022-12-02T13:04:35.422Z,24.90
2022-12-02T13:07:01.457Z,24.90
2022-12-02T13:09:27.496Z,24.90
2022-12-02T13:11:53.534Z,24.90
2022-12-02T13:14:19.574Z,24.90
2022-12-02T13:16:45.749Z,24.90
2022-12-02T13:19:11.915Z,24.90
2022-12-02T13:21:38.010Z,24.90
2022-12-02T13:24:04.876Z,24.80
2022-12-02T13:26:30.926Z,24.90
2022-12-02T13:28:57.125Z,24.90
2022-12-02T13:31:23.260Z,24.80
2022-12-02T13:33:49.394Z,24.80
2022-12-02T13:36:15.562Z,24.80
2022-12-02T13:38:41.614Z,24.90
2022-12-02T13:41:07.808Z,24.90
2022-12-02T13:43:34.157Z,24.80
2022-12-02T13:46:00.245Z,24.80
2022-12-02T13:48:26.359Z,24.80
2022-12-02T13:50:52.400Z,24.80
2022-12-02T13:53:18.636Z,24.80
2022-12-02T13:55:44.729Z,24.80
2022-12-02T13:58:10.812Z,24.80
2022-12-02T14:00:36.949Z,24.80
2022-12-02T14:03:03.973Z,24.80
2022-12-02T14:05:30.565Z,24.80
2022-12-02T14:07:56.713Z,24.80
2022-12-02T14:10:22.812Z,24.80
2022-12-02T14:12:48.899Z,24.80
2022-12-02T14:15:15.227Z,24.80
2022-12-02T14:17:41.358Z,24.80
2022-12-02T14:20:07.775Z,24.80
2022-12-02T14:22:34.051Z,24.80
2022-12-02T14:25:00.197Z,24.80
2022-12-02T14:27:26.505Z,24.80
2022-12-02T14:29:52.565Z,24.70
2022-12-02T14:32:18.611Z,24.80
2022-12-02T14:34:44.678Z,24.80
2022-12-02T14:37:14.836Z,24.80
2022-12-02T14:39:42.050Z,24.80
2022-12-02T14:42:08.393Z,24.80
2022-12-02T14:44:34.783Z,24.80
2022-12-02T14:47:00.868Z,24.80
2022-12-02T14:49:42.638Z,24.80
2022-12-02T14:52:08.889Z,24.70
2022-12-02T14:54:35.103Z,24.70
2022-12-02T14:57:01.247Z,24.70
2022-12-02T14:59:27.311Z,24.70
2022-12-02T15:01:53.557Z,24.70
2022-12-02T15:04:19.854Z,24.70
2022-12-02T15:06:45.909Z,24.70
2022-12-02T15:09:12.358Z,24.70
2022-12-02T15:11:38.509Z,24.70
2022-12-02T15:14:04.603Z,24.70
2022-12-02T15:16:30.830Z,24.70
2022-12-02T15:18:56.953Z,24.70
2022-12-02T15:21:23.032Z,24.70
2022-12-02T15:23:49.956Z,24.70
2022-12-02T15:26:16.092Z,24.70
2022-12-02T15:28:42.137Z,24.70
2022-12-02T15:31:08.223Z,24.70
2022-12-02T15:33:34.390Z,24.70
2022-12-02T15:36:00.618Z,24.70
2022-12-02T15:38:28.515Z,24.70
2022-12-02T15:40:55.762Z,24.70
2022-12-02T15:43:21.850Z,24.70
2022-12-02T15:45:47.892Z,24.70
2022-12-02T15:48:13.928Z,24.70
2022-12-02T15:50:39.997Z,24.70
2022-12-02T15:53:06.081Z,24.70
2022-12-02T15:55:32.491Z,24.70
2022-12-02T15:57:58.541Z,24.70
2022-12-02T16:00:24.609Z,24.70
2022-12-02T16:02:55.892Z,24.70
2022-12-02T16:05:22.778Z,24.70
2022-12-02T16:07:48.969Z,24.70
2022-12-02T16:10:15.185Z,24.70
2022-12-02T16:12:41.228Z,24.60
2022-12-02T16:15:07.694Z,24.70
2022-12-02T16:17:34.198Z,24.60
2022-12-02T16:20:00.324Z,24.60
2022-12-02T16:22:26.410Z,24.60
2022-12-02T16:24:52.713Z,24.60
2022-12-02T16:27:18.833Z,24.60
2022-12-02T16:29:44.945Z,24.60
2022-12-02T16:32:15.311Z,24.60
2022-12-02T16:34:44.748Z,24.60
2022-12-02T16:37:10.868Z,24.60
2022-12-02T16:39:36.940Z,24.60
2022-12-02T16:42:03.033Z,24.60
2022-12-02T16:44:29.129Z,24.60
2022-12-02T16:46:55.169Z,24.60
2022-12-02T16:49:21.214Z,24.60
2022-12-02T16:51:47.257Z,24.60
2022-12-02T16:54:13.306Z,24.60
2022-12-02T16:56:39.361Z,24.60
2022-12-02T16:59:05.430Z,24.60
2022-12-02T17:01:31.539Z,24.60
2022-12-02T17:03:58.590Z,24.60
2022-12-02T17:06:24.647Z,24.60
2022-12-02T17:08:55.446Z,24.60
2022-12-02T17:11:22.231Z,24.60
2022-12-02T17:13:48.376Z,24.60
2022-12-02T17:16:14.513Z,24.60
2022-12-02T17:18:40.589Z,24.60
2022-12-02T17:21:06.640Z,24.60
2022-12-02T17:23:32.682Z,24.60
2022-12-02T17:25:58.758Z,24.60
2022-12-02T17:28:24.905Z,24.60
2022-12-02T17:30:50.960Z,24.60
2022-12-02T17:33:17.026Z,24.60
2022-12-02T17:35:43.071Z,24.60
2022-12-02T17:38:09.118Z,24.60
2022-12-02T17:40:35.168Z,24.50
2022-12-02T17:43:01.252Z,24.60
2022-12-02T17:45:27.375Z,24.50
2022-12-02T17:47:53.436Z,24.50
2022-12-02T17:50:19.480Z,24.50
2022-12-02T17:52:45.563Z,24.50
2022-12-02T17:55:13.782Z,24.50
2022-12-02T17:57:42.262Z,24.50
2022-12-02T18:00:09.756Z,24.50
2022-12-02T18:02:35.853Z,24.50
2022-12-02T18:05:02.067Z,24.60
2022-12-02T18:07:29.862Z,24.60
2022-12-02T18:09:56.271Z,24.60
2022-12-02T18:12:22.860Z,24.70
2022-12-02T18:14:50.155Z,24.70
2022-12-02T18:17:16.408Z,24.70
2022-12-02T18:19:42.515Z,24.70
2022-12-02T18:22:08.577Z,24.70
2022-12-02T18:24:34.623Z,24.80
2022-12-02T18:27:00.705Z,24.80
2022-12-02T18:29:26.760Z,24.80
2022-12-02T18:31:52.803Z,24.80
2022-12-02T18:34:18.858Z,24.90
2022-12-02T18:36:44.994Z,24.90
2022-12-02T18:39:11.167Z,24.90
2022-12-02T18:41:37.233Z,24.90
2022-12-02T18:44:03.277Z,24.90
2022-12-02T18:46:29.405Z,24.90
2022-12-02T18:48:55.518Z,24.90
2022-12-02T18:51:21.585Z,24.90
2022-12-02T18:53:48.912Z,24.90
2022-12-02T18:56:19.012Z,24.90
2022-12-02T18:58:48.253Z,24.90
2022-12-02T19:01:14.317Z,24.90
2022-12-02T19:03:40.507Z,25.00
2022-12-02T19:06:06.737Z,25.00
2022-12-02T19:08:32.789Z,25.00
2022-12-02T19:10:58.844Z,25.00
2022-12-02T19:13:24.896Z,25.00
2022-12-02T19:15:50.975Z,25.00
2022-12-02T19:18:17.099Z,25.00
2022-12-02T19:20:43.132Z,25.10
2022-12-02T19:23:09.209Z,25.10
2022-12-02T19:25:39.047Z,25.10
2022-12-02T19:28:10.329Z,25.10
2022-12-02T19:30:36.380Z,25.10
2022-12-02T19:33:02.436Z,25.10
2022-12-02T19:35:28.544Z,25.10
2022-12-02T19:37:57.099Z,25.10
2022-12-02T19:40:30.965Z,25.10
2022-12-02T19:43:00.922Z,25.10
2022-12-02T19:45:26.983Z,25.10
2022-12-02T19:47:53.032Z,25.10
2022-12-02T19:50:19.405Z,25.10
2022-12-02T19:52:46.715Z,25.10
2022-12-02T19:55:14.176Z,25.10
2022-12-02T19:57:41.137Z,25.10
2022-12-02T20:00:12.652Z,25.10
2022-12-02T20:02:39.244Z,25.10
2022-12-02T20:05:07.445Z,25.10
2022-12-02T20:07:33.584Z,25.10
2022-12-02T20:09:59.689Z,25.20
2022-12-02T20:12:25.727Z,25.20
2022-12-02T20:14:52.050Z,25.10
2022-12-02T20:17:18.628Z,25.20
2022-12-02T20:19:44.765Z,25.20
2022-12-02T20:22:10.794Z,25.10
2022-12-02T20:24:36.915Z,25.20
2022-12-02T20:27:03.102Z,25.20
2022-12-02T20:29:29.160Z,25.20
2022-12-02T20:31:55.218Z,25.20
2022-12-02T20:34:21.265Z,25.20
2022-12-02T20:36:47.308Z,25.20
2022-12-02T20:39:13.832Z,25.20
2022-12-02T20:41:40.034Z,25.20
2022-12-02T20:44:06.198Z,25.20
2022-12-02T20:46:32.361Z,25.20
2022-12-02T20:48:58.464Z,25.20
2022-12-02T20:51:24.652Z,25.20
2022-12-02T20:53:50.798Z,25.20
2022-12-02T20:56:16.849Z,25.20
2022-12-02T20:58:45.909Z,25.20
2022-12-02T21:01:13.092Z,25.20
2022-12-02T21:03:39.259Z,25.20
2022-12-02T21:06:05.577Z,25.20
2022-12-02T21:08:31.650Z,25.20
2022-12-02T21:10:57.702Z,25.20
2022-12-02T21:13:23.782Z,25.20
2022-12-02T21:15:50.161Z,25.20
2022-12-02T21:18:16.824Z,25.20
2022-12-02T21:20:43.120Z,25.20
2022-12-02T21:23:09.197Z,25.20
2022-12-02T21:25:35.325Z,25.20
2022-12-02T21:28:01.642Z,25.30
2022-12-02T21:30:28.191Z,25.30
2022-12-02T21:32:54.255Z,25.20
2022-12-02T21:35:20.427Z,25.20
2022-12-02T21:37:46.513Z,25.30
2022-12-02T21:40:14.452Z,25.30
2022-12-02T21:42:40.732Z,25.20
2022-12-02T21:45:07.656Z,25.30
2022-12-02T21:47:33.794Z,25.30
2022-12-02T21:49:59.861Z,25.30
2022-12-02T21:52:25.966Z,25.30
2022-12-02T21:54:52.258Z,25.30
2022-12-02T21:57:18.592Z,25.30
2022-12-02T21:59:44.637Z,25.30
2022-12-02T22:02:15.018Z,25.30
2022-12-02T22:04:42.667Z,25.30
2022-12-02T22:07:28.335Z,25.30
2022-12-02T22:09:54.665Z,25.30
2022-12-02T22:12:21.015Z,25.30
2022-12-02T22:14:47.061Z,25.30
2022-12-02T22:17:13.101Z,25.30
2022-12-02T22:19:39.132Z,25.30
2022-12-02T22:22:05.300Z,25.30
2022-12-02T22:24:31.328Z,25.30
2022-12-02T22:26:57.454Z,25.30
2022-12-02T22:29:23.853Z,25.30
2022-12-02T22:31:49.989Z,25.30
2022-12-02T22:34:16.050Z,25.30
2022-12-02T22:36:42.104Z,25.30
2022-12-02T22:39:08.158Z,25.30
2022-12-02T22:41:34.210Z,25.30
2022-12-02T22:44:00.274Z,25.30
2022-12-02T22:46:26.406Z,25.30
2022-12-02T22:48:52.594Z,25.30
2022-12-02T22:51:18.730Z,25.30
2022-12-02T22:53:44.808Z,25.30
2022-12-02T22:56:10.865Z,25.30
2022-12-02T22:58:37.159Z,25.30
2022-12-02T23:01:03.291Z,25.30
2022-12-02T23:03:29.372Z,25.30
2022-12-02T23:05:55.770Z,25.40
2022-12-02T23:08:21.984Z,25.30
2022-12-02T23:10:48.269Z,25.30
2022-12-02T23:13:14.310Z,25.30
2022-12-02T23:15:40.812Z,25.40
2022-12-02T23:18:07.488Z,25.40
2022-12-02T23:20:34.564Z,25.30
2022-12-02T23:23:00.744Z,25.40
2022-12-02T23:25:26.790Z,25.30
2022-12-02T23:27:52.907Z,25.30
2022-12-02T23:30:21.421Z,25.40
2022-12-02T23:32:51.910Z,25.40
2022-12-02T23:35:18.130Z,25.40
2022-12-02T23:37:44.277Z,25.40
2022-12-02T23:40:11.947Z,25.40
2022-12-02T23:42:38.578Z,25.40
2022-12-02T23:45:06.185Z,25.40
2022-12-02T23:47:32.409Z,25.40
2022-12-02T23:49:58.509Z,25.40
2022-12-02T23:52:24.643Z,25.40
2022-12-02T23:54:50.997Z,25.40
2022-12-02T23:57:17.334Z,25.40
2022-12-02T23:59:43.543Z,25.40
